sensor_id;sensor_type;location;lat;lon;timestamp;temperature;humidity
70089;HTU21D;57460;47.134;19.888;2023-05-25T00:01:18;18.95;72.92
70089;HTU21D;57460;47.134;19.888;2023-05-25T00:03:44;18.92;73.28
70089;HTU21D;57460;47.134;19.888;2023-05-25T00:06:10;18.89;72.80
70089;HTU21D;57460;47.134;19.888;2023-05-25T00:08:38;18.85;73.42
70089;HTU21D;57460;47.134;19.888;2023-05-25T00:11:05;18.83;73.06
70089;HTU21D;57460;47.134;19.888;2023-05-25T00:13:30;18.80;72.39
70089;HTU21D;57460;47.134;19.888;2023-05-25T00:15:57;18.76;72.88
70089;HTU21D;57460;47.134;19.888;2023-05-25T00:18:23;18.71;73.15
70089;HTU21D;57460;47.134;19.888;2023-05-25T00:20:50;18.67;73.32
70089;HTU21D;57460;47.134;19.888;2023-05-25T00:23:19;18.61;73.15
70089;HTU21D;57460;47.134;19.888;2023-05-25T00:25:45;18.57;73.61
70089;HTU21D;57460;47.134;19.888;2023-05-25T00:28:11;18.50;74.47
70089;HTU21D;57460;47.134;19.888;2023-05-25T00:30:37;18.39;75.12
70089;HTU21D;57460;47.134;19.888;2023-05-25T00:33:03;18.34;74.57
70089;HTU21D;57460;47.134;19.888;2023-05-25T00:35:29;18.30;74.37
70089;HTU21D;57460;47.134;19.888;2023-05-25T00:37:55;18.28;74.45
70089;HTU21D;57460;47.134;19.888;2023-05-25T00:40:21;18.28;74.09
70089;HTU21D;57460;47.134;19.888;2023-05-25T00:42:47;18.30;74.50
70089;HTU21D;57460;47.134;19.888;2023-05-25T00:45:13;18.30;73.61
70089;HTU21D;57460;47.134;19.888;2023-05-25T00:47:39;18.30;73.58
70089;HTU21D;57460;47.134;19.888;2023-05-25T00:50:08;18.30;73.36
70089;HTU21D;57460;47.134;19.888;2023-05-25T00:52:37;18.32;73.74
70089;HTU21D;57460;47.134;19.888;2023-05-25T00:55:07;18.33;73.22
70089;HTU21D;57460;47.134;19.888;2023-05-25T00:57:36;18.30;72.98
70089;HTU21D;57460;47.134;19.888;2023-05-25T01:00:06;18.29;72.97
70089;HTU21D;57460;47.134;19.888;2023-05-25T01:02:37;18.24;73.90
70089;HTU21D;57460;47.134;19.888;2023-05-25T01:05:05;18.21;73.36
70089;HTU21D;57460;47.134;19.888;2023-05-25T01:07:35;18.17;73.64
70089;HTU21D;57460;47.134;19.888;2023-05-25T01:10:06;18.06;74.66
70089;HTU21D;57460;47.134;19.888;2023-05-25T01:12:36;17.99;74.22
70089;HTU21D;57460;47.134;19.888;2023-05-25T01:15:04;17.98;72.94
70089;HTU21D;57460;47.134;19.888;2023-05-25T01:17:30;17.94;73.42
70089;HTU21D;57460;47.134;19.888;2023-05-25T01:19:56;17.95;72.87
70089;HTU21D;57460;47.134;19.888;2023-05-25T01:25:41;17.93;72.90
70089;HTU21D;57460;47.134;19.888;2023-05-25T01:28:34;17.84;73.52
70089;HTU21D;57460;47.134;19.888;2023-05-25T01:31:01;17.78;73.83
70089;HTU21D;57460;47.134;19.888;2023-05-25T01:33:29;17.68;74.48
70089;HTU21D;57460;47.134;19.888;2023-05-25T01:35:57;17.61;73.67
70089;HTU21D;57460;47.134;19.888;2023-05-25T01:38:24;17.55;74.26
70089;HTU21D;57460;47.134;19.888;2023-05-25T01:40:50;17.49;74.54
70089;HTU21D;57460;47.134;19.888;2023-05-25T01:43:16;17.43;74.04
70089;HTU21D;57460;47.134;19.888;2023-05-25T01:45:42;17.39;74.88
70089;HTU21D;57460;47.134;19.888;2023-05-25T01:48:10;17.36;74.84
70089;HTU21D;57460;47.134;19.888;2023-05-25T01:51:02;17.30;75.14
70089;HTU21D;57460;47.134;19.888;2023-05-25T01:53:35;17.18;76.37
70089;HTU21D;57460;47.134;19.888;2023-05-25T01:56:05;17.13;77.20
70089;HTU21D;57460;47.134;19.888;2023-05-25T01:58:43;17.08;75.65
70089;HTU21D;57460;47.134;19.888;2023-05-25T02:01:13;17.09;75.39
70089;HTU21D;57460;47.134;19.888;2023-05-25T02:03:40;17.13;74.86
70089;HTU21D;57460;47.134;19.888;2023-05-25T02:06:07;17.08;75.24
70089;HTU21D;57460;47.134;19.888;2023-05-25T02:08:33;17.08;74.74
70089;HTU21D;57460;47.134;19.888;2023-05-25T02:11:00;17.09;74.55
70089;HTU21D;57460;47.134;19.888;2023-05-25T02:13:26;17.13;74.09
70089;HTU21D;57460;47.134;19.888;2023-05-25T02:15:52;17.16;74.28
70089;HTU21D;57460;47.134;19.888;2023-05-25T02:18:18;17.16;74.35
70089;HTU21D;57460;47.134;19.888;2023-05-25T02:20:44;17.15;74.99
70089;HTU21D;57460;47.134;19.888;2023-05-25T02:23:12;17.15;74.02
70089;HTU21D;57460;47.134;19.888;2023-05-25T02:25:37;17.15;75.02
70089;HTU21D;57460;47.134;19.888;2023-05-25T02:28:04;17.10;74.63
70089;HTU21D;57460;47.134;19.888;2023-05-25T02:30:30;17.07;74.48
70089;HTU21D;57460;47.134;19.888;2023-05-25T02:44:43;16.73;73.89
70089;HTU21D;57460;47.134;19.888;2023-05-25T02:47:16;16.69;75.89
70089;HTU21D;57460;47.134;19.888;2023-05-25T02:49:46;16.67;74.98
70089;HTU21D;57460;47.134;19.888;2023-05-25T02:52:12;16.67;75.71
70089;HTU21D;57460;47.134;19.888;2023-05-25T02:54:38;16.67;74.09
70089;HTU21D;57460;47.134;19.888;2023-05-25T02:57:05;16.65;75.35
70089;HTU21D;57460;47.134;19.888;2023-05-25T02:59:31;16.63;76.41
70089;HTU21D;57460;47.134;19.888;2023-05-25T03:01:58;16.65;74.49
70089;HTU21D;57460;47.134;19.888;2023-05-25T03:04:24;16.64;75.60
70089;HTU21D;57460;47.134;19.888;2023-05-25T03:06:50;16.65;75.96
70089;HTU21D;57460;47.134;19.888;2023-05-25T03:09:16;16.67;74.70
70089;HTU21D;57460;47.134;19.888;2023-05-25T03:11:42;16.71;75.31
70089;HTU21D;57460;47.134;19.888;2023-05-25T03:14:09;16.77;73.02
70089;HTU21D;57460;47.134;19.888;2023-05-25T03:16:35;16.77;74.99
70089;HTU21D;57460;47.134;19.888;2023-05-25T03:19:04;16.78;74.69
70089;HTU21D;57460;47.134;19.888;2023-05-25T03:21:30;16.81;73.99
70089;HTU21D;57460;47.134;19.888;2023-05-25T03:23:56;16.86;74.42
70089;HTU21D;57460;47.134;19.888;2023-05-25T03:26:24;16.90;74.24
70089;HTU21D;57460;47.134;19.888;2023-05-25T03:28:51;16.86;75.73
70089;HTU21D;57460;47.134;19.888;2023-05-25T03:31:17;16.74;76.24
70089;HTU21D;57460;47.134;19.888;2023-05-25T03:33:43;16.61;76.96
70089;HTU21D;57460;47.134;19.888;2023-05-25T03:36:09;16.51;77.12
70089;HTU21D;57460;47.134;19.888;2023-05-25T03:38:35;16.49;75.08
70089;HTU21D;57460;47.134;19.888;2023-05-25T03:41:01;16.47;76.36
70089;HTU21D;57460;47.134;19.888;2023-05-25T03:43:27;16.51;76.28
70089;HTU21D;57460;47.134;19.888;2023-05-25T03:45:53;16.60;75.28
70089;HTU21D;57460;47.134;19.888;2023-05-25T03:48:19;16.67;75.37
70089;HTU21D;57460;47.134;19.888;2023-05-25T03:50:45;16.70;76.37
70089;HTU21D;57460;47.134;19.888;2023-05-25T03:53:11;16.73;75.11
70089;HTU21D;57460;47.134;19.888;2023-05-25T03:55:37;16.75;75.02
70089;HTU21D;57460;47.134;19.888;2023-05-25T03:58:03;16.77;76.05
70089;HTU21D;57460;47.134;19.888;2023-05-25T04:00:28;16.81;74.86
70089;HTU21D;57460;47.134;19.888;2023-05-25T04:02:54;16.84;75.38
70089;HTU21D;57460;47.134;19.888;2023-05-25T04:05:21;16.89;75.02
70089;HTU21D;57460;47.134;19.888;2023-05-25T04:07:47;16.93;75.75
70089;HTU21D;57460;47.134;19.888;2023-05-25T04:10:13;17.00;74.75
70089;HTU21D;57460;47.134;19.888;2023-05-25T04:12:39;17.05;75.52
70089;HTU21D;57460;47.134;19.888;2023-05-25T04:15:05;17.11;75.72
70089;HTU21D;57460;47.134;19.888;2023-05-25T04:17:34;17.16;74.58
70089;HTU21D;57460;47.134;19.888;2023-05-25T04:20:01;17.20;75.20
70089;HTU21D;57460;47.134;19.888;2023-05-25T04:22:27;17.25;74.54
70089;HTU21D;57460;47.134;19.888;2023-05-25T04:24:53;17.33;73.11
70089;HTU21D;57460;47.134;19.888;2023-05-25T04:27:19;17.37;74.51
70089;HTU21D;57460;47.134;19.888;2023-05-25T04:29:45;17.43;73.86
70089;HTU21D;57460;47.134;19.888;2023-05-25T04:32:11;17.45;75.12
70089;HTU21D;57460;47.134;19.888;2023-05-25T04:34:43;17.48;74.73
70089;HTU21D;57460;47.134;19.888;2023-05-25T04:37:11;17.54;74.91
70089;HTU21D;57460;47.134;19.888;2023-05-25T04:39:37;17.56;74.57
70089;HTU21D;57460;47.134;19.888;2023-05-25T04:42:03;17.63;73.79
70089;HTU21D;57460;47.134;19.888;2023-05-25T04:44:31;17.67;73.51
70089;HTU21D;57460;47.134;19.888;2023-05-25T04:46:57;17.67;73.80
70089;HTU21D;57460;47.134;19.888;2023-05-25T04:49:27;17.72;72.68
70089;HTU21D;57460;47.134;19.888;2023-05-25T04:51:53;17.78;72.62
70089;HTU21D;57460;47.134;19.888;2023-05-25T04:54:19;17.80;73.11
70089;HTU21D;57460;47.134;19.888;2023-05-25T04:56:45;17.84;72.64
70089;HTU21D;57460;47.134;19.888;2023-05-25T04:59:11;17.89;73.12
70089;HTU21D;57460;47.134;19.888;2023-05-25T05:01:36;17.92;73.13
70089;HTU21D;57460;47.134;19.888;2023-05-25T05:04:08;17.98;73.11
70089;HTU21D;57460;47.134;19.888;2023-05-25T05:06:34;18.00;73.01
70089;HTU21D;57460;47.134;19.888;2023-05-25T05:09:02;18.08;72.99
70089;HTU21D;57460;47.134;19.888;2023-05-25T05:11:28;18.18;73.41
70089;HTU21D;57460;47.134;19.888;2023-05-25T05:13:55;18.26;73.32
70089;HTU21D;57460;47.134;19.888;2023-05-25T05:16:21;18.42;71.78
70089;HTU21D;57460;47.134;19.888;2023-05-25T05:18:47;18.44;71.08
70089;HTU21D;57460;47.134;19.888;2023-05-25T05:21:13;18.50;71.38
70089;HTU21D;57460;47.134;19.888;2023-05-25T05:23:41;18.59;70.69
70089;HTU21D;57460;47.134;19.888;2023-05-25T05:26:07;18.68;71.79
70089;HTU21D;57460;47.134;19.888;2023-05-25T05:28:36;18.79;71.26
70089;HTU21D;57460;47.134;19.888;2023-05-25T05:31:02;18.89;72.20
70089;HTU21D;57460;47.134;19.888;2023-05-25T05:33:28;18.99;70.76
70089;HTU21D;57460;47.134;19.888;2023-05-25T05:35:54;19.10;71.70
70089;HTU21D;57460;47.134;19.888;2023-05-25T05:38:19;19.24;71.27
70089;HTU21D;57460;47.134;19.888;2023-05-25T05:40:45;19.43;70.42
70089;HTU21D;57460;47.134;19.888;2023-05-25T05:43:13;19.53;69.89
70089;HTU21D;57460;47.134;19.888;2023-05-25T05:45:39;19.63;70.29
70089;HTU21D;57460;47.134;19.888;2023-05-25T05:48:06;19.77;68.44
70089;HTU21D;57460;47.134;19.888;2023-05-25T05:50:38;19.81;68.63
70089;HTU21D;57460;47.134;19.888;2023-05-25T05:53:05;19.87;68.96
70089;HTU21D;57460;47.134;19.888;2023-05-25T05:55:32;19.98;68.40
70089;HTU21D;57460;47.134;19.888;2023-05-25T05:57:58;20.04;67.52
70089;HTU21D;57460;47.134;19.888;2023-05-25T06:00:24;20.15;67.72
70089;HTU21D;57460;47.134;19.888;2023-05-25T06:02:49;20.26;67.49
70089;HTU21D;57460;47.134;19.888;2023-05-25T06:05:16;20.39;67.24
70089;HTU21D;57460;47.134;19.888;2023-05-25T06:07:42;20.43;66.93
70089;HTU21D;57460;47.134;19.888;2023-05-25T06:10:11;20.48;67.04
70089;HTU21D;57460;47.134;19.888;2023-05-25T06:12:46;20.64;66.83
70089;HTU21D;57460;47.134;19.888;2023-05-25T06:15:31;20.70;66.59
70089;HTU21D;57460;47.134;19.888;2023-05-25T06:17:57;20.93;65.03
70089;HTU21D;57460;47.134;19.888;2023-05-25T06:20:23;20.92;63.95
70089;HTU21D;57460;47.134;19.888;2023-05-25T06:22:49;20.91;64.02
70089;HTU21D;57460;47.134;19.888;2023-05-25T06:25:15;20.92;64.67
70089;HTU21D;57460;47.134;19.888;2023-05-25T06:27:41;21.00;64.98
70089;HTU21D;57460;47.134;19.888;2023-05-25T06:30:07;21.10;65.69
70089;HTU21D;57460;47.134;19.888;2023-05-25T06:32:34;21.32;64.01
70089;HTU21D;57460;47.134;19.888;2023-05-25T06:35:00;21.40;64.09
70089;HTU21D;57460;47.134;19.888;2023-05-25T06:37:26;21.45;63.66
70089;HTU21D;57460;47.134;19.888;2023-05-25T06:39:52;21.54;64.05
70089;HTU21D;57460;47.134;19.888;2023-05-25T06:42:18;21.68;64.16
70089;HTU21D;57460;47.134;19.888;2023-05-25T06:44:44;21.80;64.27
70089;HTU21D;57460;47.134;19.888;2023-05-25T06:47:10;21.92;63.75
70089;HTU21D;57460;47.134;19.888;2023-05-25T06:49:36;22.09;63.68
70089;HTU21D;57460;47.134;19.888;2023-05-25T06:52:02;22.24;64.73
70089;HTU21D;57460;47.134;19.888;2023-05-25T06:54:27;22.46;62.93
70089;HTU21D;57460;47.134;19.888;2023-05-25T06:56:53;22.53;61.76
70089;HTU21D;57460;47.134;19.888;2023-05-25T06:59:19;22.57;61.21
70089;HTU21D;57460;47.134;19.888;2023-05-25T07:01:45;22.62;58.55
70089;HTU21D;57460;47.134;19.888;2023-05-25T07:04:11;22.69;60.56
70089;HTU21D;57460;47.134;19.888;2023-05-25T07:06:38;22.73;61.48
70089;HTU21D;57460;47.134;19.888;2023-05-25T07:09:08;22.79;60.66
70089;HTU21D;57460;47.134;19.888;2023-05-25T07:11:34;23.01;60.62
70089;HTU21D;57460;47.134;19.888;2023-05-25T07:14:02;23.07;59.74
70089;HTU21D;57460;47.134;19.888;2023-05-25T07:16:32;23.18;58.85
70089;HTU21D;57460;47.134;19.888;2023-05-25T07:18:59;23.25;60.12
70089;HTU21D;57460;47.134;19.888;2023-05-25T07:21:25;23.41;60.14
70089;HTU21D;57460;47.134;19.888;2023-05-25T07:23:51;23.59;59.41
70089;HTU21D;57460;47.134;19.888;2023-05-25T07:26:22;23.70;56.46
70089;HTU21D;57460;47.134;19.888;2023-05-25T07:28:52;23.82;56.95
70089;HTU21D;57460;47.134;19.888;2023-05-25T07:31:18;23.97;57.80
70089;HTU21D;57460;47.134;19.888;2023-05-25T07:33:44;24.21;58.19
70089;HTU21D;57460;47.134;19.888;2023-05-25T07:36:10;24.09;58.26
70089;HTU21D;57460;47.134;19.888;2023-05-25T07:38:36;24.34;58.51
70089;HTU21D;57460;47.134;19.888;2023-05-25T07:41:03;24.48;57.51
70089;HTU21D;57460;47.134;19.888;2023-05-25T07:43:29;24.56;54.65
70089;HTU21D;57460;47.134;19.888;2023-05-25T07:46:13;24.79;56.55
70089;HTU21D;57460;47.134;19.888;2023-05-25T07:48:43;24.90;55.12
70089;HTU21D;57460;47.134;19.888;2023-05-25T07:51:10;24.74;56.48
70089;HTU21D;57460;47.134;19.888;2023-05-25T07:53:43;24.82;53.69
70089;HTU21D;57460;47.134;19.888;2023-05-25T07:58:47;25.25;55.39
70089;HTU21D;57460;47.134;19.888;2023-05-25T08:01:13;25.10;52.31
70089;HTU21D;57460;47.134;19.888;2023-05-25T08:06:43;25.07;51.38
70089;HTU21D;57460;47.134;19.888;2023-05-25T08:09:09;25.24;54.25
70089;HTU21D;57460;47.134;19.888;2023-05-25T08:11:38;25.50;52.46
70089;HTU21D;57460;47.134;19.888;2023-05-25T08:14:04;25.68;54.52
70089;HTU21D;57460;47.134;19.888;2023-05-25T08:16:30;25.86;52.44
70089;HTU21D;57460;47.134;19.888;2023-05-25T08:19:15;26.06;54.17
70089;HTU21D;57460;47.134;19.888;2023-05-25T08:21:44;26.34;53.72
70089;HTU21D;57460;47.134;19.888;2023-05-25T08:24:10;26.37;49.59
70089;HTU21D;57460;47.134;19.888;2023-05-25T08:26:36;26.30;51.90
70089;HTU21D;57460;47.134;19.888;2023-05-25T08:29:03;26.33;51.28
70089;HTU21D;57460;47.134;19.888;2023-05-25T08:31:33;26.30;47.92
70089;HTU21D;57460;47.134;19.888;2023-05-25T08:33:59;26.52;51.45
70089;HTU21D;57460;47.134;19.888;2023-05-25T08:36:26;26.57;50.82
70089;HTU21D;57460;47.134;19.888;2023-05-25T08:38:52;26.51;49.69
70089;HTU21D;57460;47.134;19.888;2023-05-25T08:41:19;26.50;49.36
70089;HTU21D;57460;47.134;19.888;2023-05-25T08:43:46;26.77;51.50
70089;HTU21D;57460;47.134;19.888;2023-05-25T08:46:12;27.11;50.44
70089;HTU21D;57460;47.134;19.888;2023-05-25T08:48:38;27.17;50.25
70089;HTU21D;57460;47.134;19.888;2023-05-25T08:51:09;26.95;50.10
70089;HTU21D;57460;47.134;19.888;2023-05-25T08:53:38;26.78;50.52
70089;HTU21D;57460;47.134;19.888;2023-05-25T08:56:20;26.69;51.89
70089;HTU21D;57460;47.134;19.888;2023-05-25T08:59:13;27.01;48.37
70089;HTU21D;57460;47.134;19.888;2023-05-25T09:01:45;27.14;49.59
70089;HTU21D;57460;47.134;19.888;2023-05-25T09:04:12;27.04;49.05
70089;HTU21D;57460;47.134;19.888;2023-05-25T09:06:47;27.16;49.60
70089;HTU21D;57460;47.134;19.888;2023-05-25T09:12:54;27.53;46.66
70089;HTU21D;57460;47.134;19.888;2023-05-25T09:15:20;27.69;48.11
70089;HTU21D;57460;47.134;19.888;2023-05-25T09:17:46;27.99;48.51
70089;HTU21D;57460;47.134;19.888;2023-05-25T09:20:14;28.06;47.63
70089;HTU21D;57460;47.134;19.888;2023-05-25T09:22:43;28.15;47.48
70089;HTU21D;57460;47.134;19.888;2023-05-25T09:25:10;27.88;45.49
70089;HTU21D;57460;47.134;19.888;2023-05-25T09:27:37;27.86;48.05
70089;HTU21D;57460;47.134;19.888;2023-05-25T09:30:04;27.74;45.66
70089;HTU21D;57460;47.134;19.888;2023-05-25T09:32:31;27.58;46.05
70089;HTU21D;57460;47.134;19.888;2023-05-25T09:35:23;27.71;46.73
70089;HTU21D;57460;47.134;19.888;2023-05-25T09:37:52;28.00;47.26
70089;HTU21D;57460;47.134;19.888;2023-05-25T09:40:19;28.33;47.89
70089;HTU21D;57460;47.134;19.888;2023-05-25T09:42:45;28.41;47.03
70089;HTU21D;57460;47.134;19.888;2023-05-25T09:45:11;28.40;47.45
70089;HTU21D;57460;47.134;19.888;2023-05-25T09:47:39;28.24;44.11
70089;HTU21D;57460;47.134;19.888;2023-05-25T09:50:05;28.24;47.55
70089;HTU21D;57460;47.134;19.888;2023-05-25T09:52:32;28.29;45.08
70089;HTU21D;57460;47.134;19.888;2023-05-25T09:54:58;28.54;46.12
70089;HTU21D;57460;47.134;19.888;2023-05-25T09:57:26;28.63;45.04
70089;HTU21D;57460;47.134;19.888;2023-05-25T09:59:53;28.45;46.34
70089;HTU21D;57460;47.134;19.888;2023-05-25T10:02:19;28.30;46.67
70089;HTU21D;57460;47.134;19.888;2023-05-25T10:04:44;28.12;46.37
70089;HTU21D;57460;47.134;19.888;2023-05-25T10:07:14;27.89;41.56
70089;HTU21D;57460;47.134;19.888;2023-05-25T10:09:45;27.71;42.32
70089;HTU21D;57460;47.134;19.888;2023-05-25T10:12:17;27.76;46.37
70089;HTU21D;57460;47.134;19.888;2023-05-25T10:14:45;27.89;42.88
70089;HTU21D;57460;47.134;19.888;2023-05-25T10:17:20;28.24;45.42
70089;HTU21D;57460;47.134;19.888;2023-05-25T10:19:57;28.65;46.19
70089;HTU21D;57460;47.134;19.888;2023-05-25T10:22:35;28.95;43.80
70089;HTU21D;57460;47.134;19.888;2023-05-25T10:27:47;28.90;44.43
70089;HTU21D;57460;47.134;19.888;2023-05-25T10:30:17;28.77;44.74
70089;HTU21D;57460;47.134;19.888;2023-05-25T10:32:43;28.57;42.62
70089;HTU21D;57460;47.134;19.888;2023-05-25T10:35:13;28.71;40.43
70089;HTU21D;57460;47.134;19.888;2023-05-25T10:37:39;28.87;44.12
70089;HTU21D;57460;47.134;19.888;2023-05-25T10:40:06;29.09;44.80
70089;HTU21D;57460;47.134;19.888;2023-05-25T10:42:36;29.14;42.69
70089;HTU21D;57460;47.134;19.888;2023-05-25T10:45:09;29.28;44.52
70089;HTU21D;57460;47.134;19.888;2023-05-25T10:47:40;29.45;43.24
70089;HTU21D;57460;47.134;19.888;2023-05-25T10:50:21;29.27;43.54
70089;HTU21D;57460;47.134;19.888;2023-05-25T10:53:06;29.28;43.77
70089;HTU21D;57460;47.134;19.888;2023-05-25T10:58:19;29.83;43.92
70089;HTU21D;57460;47.134;19.888;2023-05-25T11:01:01;30.22;42.56
70089;HTU21D;57460;47.134;19.888;2023-05-25T11:03:54;30.16;42.08
70089;HTU21D;57460;47.134;19.888;2023-05-25T11:07:04;29.82;43.23
70089;HTU21D;57460;47.134;19.888;2023-05-25T11:09:26;29.79;41.29
70089;HTU21D;57460;47.134;19.888;2023-05-25T11:14:20;30.01;41.53
70089;HTU21D;57460;47.134;19.888;2023-05-25T11:17:14;30.22;41.77
70089;HTU21D;57460;47.134;19.888;2023-05-25T11:19:51;30.08;42.23
70089;HTU21D;57460;47.134;19.888;2023-05-25T11:22:20;30.06;41.80
70089;HTU21D;57460;47.134;19.888;2023-05-25T11:24:50;30.19;40.59
70089;HTU21D;57460;47.134;19.888;2023-05-25T11:27:24;30.11;40.26
70089;HTU21D;57460;47.134;19.888;2023-05-25T11:29:52;30.15;41.03
70089;HTU21D;57460;47.134;19.888;2023-05-25T11:32:19;30.40;42.21
70089;HTU21D;57460;47.134;19.888;2023-05-25T11:34:53;30.57;40.84
70089;HTU21D;57460;47.134;19.888;2023-05-25T11:37:20;30.53;40.55
70089;HTU21D;57460;47.134;19.888;2023-05-25T11:39:51;30.45;40.91
70089;HTU21D;57460;47.134;19.888;2023-05-25T11:42:23;30.22;36.63
70089;HTU21D;57460;47.134;19.888;2023-05-25T11:44:49;30.19;41.33
70089;HTU21D;57460;47.134;19.888;2023-05-25T11:47:18;30.40;41.18
70089;HTU21D;57460;47.134;19.888;2023-05-25T11:49:47;30.47;39.36
70089;HTU21D;57460;47.134;19.888;2023-05-25T11:52:19;30.30;38.68
70089;HTU21D;57460;47.134;19.888;2023-05-25T11:54:46;30.20;40.42
70089;HTU21D;57460;47.134;19.888;2023-05-25T11:57:22;30.37;40.15
70089;HTU21D;57460;47.134;19.888;2023-05-25T11:59:56;30.61;41.64
70089;HTU21D;57460;47.134;19.888;2023-05-25T12:02:25;30.92;40.30
70089;HTU21D;57460;47.134;19.888;2023-05-25T12:04:57;30.39;39.94
70089;HTU21D;57460;47.134;19.888;2023-05-25T12:07:25;30.38;41.00
70089;HTU21D;57460;47.134;19.888;2023-05-25T12:09:51;30.37;40.31
70089;HTU21D;57460;47.134;19.888;2023-05-25T12:12:23;30.44;40.08
70089;HTU21D;57460;47.134;19.888;2023-05-25T12:14:50;30.52;39.40
70089;HTU21D;57460;47.134;19.888;2023-05-25T12:17:18;30.64;40.50
70089;HTU21D;57460;47.134;19.888;2023-05-25T12:19:45;30.47;37.15
70089;HTU21D;57460;47.134;19.888;2023-05-25T12:22:13;30.42;39.27
70089;HTU21D;57460;47.134;19.888;2023-05-25T12:24:41;30.49;36.90
70089;HTU21D;57460;47.134;19.888;2023-05-25T12:27:18;30.33;38.65
70089;HTU21D;57460;47.134;19.888;2023-05-25T12:29:45;30.35;40.17
70089;HTU21D;57460;47.134;19.888;2023-05-25T12:32:12;30.50;41.08
70089;HTU21D;57460;47.134;19.888;2023-05-25T12:34:38;30.78;39.94
70089;HTU21D;57460;47.134;19.888;2023-05-25T12:37:04;31.12;40.60
70089;HTU21D;57460;47.134;19.888;2023-05-25T12:39:48;31.13;37.62
70089;HTU21D;57460;47.134;19.888;2023-05-25T12:42:16;31.12;37.61
70089;HTU21D;57460;47.134;19.888;2023-05-25T12:44:43;31.13;40.11
70089;HTU21D;57460;47.134;19.888;2023-05-25T12:47:18;30.98;37.88
70089;HTU21D;57460;47.134;19.888;2023-05-25T12:49:50;31.08;40.00
70089;HTU21D;57460;47.134;19.888;2023-05-25T12:52:44;30.94;39.75
70089;HTU21D;57460;47.134;19.888;2023-05-25T12:55:27;30.97;37.57
70089;HTU21D;57460;47.134;19.888;2023-05-25T12:57:59;31.22;39.46
70089;HTU21D;57460;47.134;19.888;2023-05-25T13:00:38;31.21;36.88
70089;HTU21D;57460;47.134;19.888;2023-05-25T13:03:05;31.19;38.48
70089;HTU21D;57460;47.134;19.888;2023-05-25T13:05:36;31.43;37.61
70089;HTU21D;57460;47.134;19.888;2023-05-25T13:08:04;31.10;38.38
70089;HTU21D;57460;47.134;19.888;2023-05-25T13:10:31;31.16;37.51
70089;HTU21D;57460;47.134;19.888;2023-05-25T13:12:58;31.18;37.09
70089;HTU21D;57460;47.134;19.888;2023-05-25T13:15:28;31.29;38.08
70089;HTU21D;57460;47.134;19.888;2023-05-25T13:17:55;31.53;38.07
70089;HTU21D;57460;47.134;19.888;2023-05-25T13:20:25;31.49;37.01
70089;HTU21D;57460;47.134;19.888;2023-05-25T13:22:52;31.43;38.60
70089;HTU21D;57460;47.134;19.888;2023-05-25T13:25:20;31.43;38.92
70089;HTU21D;57460;47.134;19.888;2023-05-25T13:27:50;31.60;37.81
70089;HTU21D;57460;47.134;19.888;2023-05-25T13:30:17;31.72;37.67
70089;HTU21D;57460;47.134;19.888;2023-05-25T13:32:45;31.82;38.11
70089;HTU21D;57460;47.134;19.888;2023-05-25T13:35:11;31.92;37.86
70089;HTU21D;57460;47.134;19.888;2023-05-25T13:37:44;31.93;36.71
70089;HTU21D;57460;47.134;19.888;2023-05-25T13:40:12;32.10;35.89
70089;HTU21D;57460;47.134;19.888;2023-05-25T13:42:41;31.60;36.30
70089;HTU21D;57460;47.134;19.888;2023-05-25T13:45:07;31.33;33.91
70089;HTU21D;57460;47.134;19.888;2023-05-25T13:47:34;31.22;36.93
70089;HTU21D;57460;47.134;19.888;2023-05-25T13:50:00;31.31;37.76
70089;HTU21D;57460;47.134;19.888;2023-05-25T13:52:26;31.56;37.63
70089;HTU21D;57460;47.134;19.888;2023-05-25T13:54:52;31.54;37.85
70089;HTU21D;57460;47.134;19.888;2023-05-25T13:57:18;31.50;34.33
70089;HTU21D;57460;47.134;19.888;2023-05-25T13:59:43;31.69;36.39
70089;HTU21D;57460;47.134;19.888;2023-05-25T14:02:09;31.53;37.19
70089;HTU21D;57460;47.134;19.888;2023-05-25T14:04:35;31.45;36.08
70089;HTU21D;57460;47.134;19.888;2023-05-25T14:07:02;31.40;34.86
70089;HTU21D;57460;47.134;19.888;2023-05-25T14:09:27;31.50;36.63
70089;HTU21D;57460;47.134;19.888;2023-05-25T14:11:53;31.18;36.93
70089;HTU21D;57460;47.134;19.888;2023-05-25T14:14:19;31.06;37.14
70089;HTU21D;57460;47.134;19.888;2023-05-25T14:16:45;31.20;37.10
70089;HTU21D;57460;47.134;19.888;2023-05-25T14:19:11;31.15;36.50
70089;HTU21D;57460;47.134;19.888;2023-05-25T14:24:14;31.08;37.50
70089;HTU21D;57460;47.134;19.888;2023-05-25T14:26:46;31.09;35.00
70089;HTU21D;57460;47.134;19.888;2023-05-25T14:29:12;31.08;37.14
70089;HTU21D;57460;47.134;19.888;2023-05-25T14:31:37;31.25;37.68
70089;HTU21D;57460;47.134;19.888;2023-05-25T14:34:03;31.36;37.33
70089;HTU21D;57460;47.134;19.888;2023-05-25T14:36:29;31.26;37.02
70089;HTU21D;57460;47.134;19.888;2023-05-25T14:38:56;31.35;37.63
70089;HTU21D;57460;47.134;19.888;2023-05-25T14:41:21;31.22;37.05
70089;HTU21D;57460;47.134;19.888;2023-05-25T14:43:47;31.13;33.67
70089;HTU21D;57460;47.134;19.888;2023-05-25T14:46:13;31.11;37.02
70089;HTU21D;57460;47.134;19.888;2023-05-25T14:48:39;31.15;36.43
70089;HTU21D;57460;47.134;19.888;2023-05-25T14:51:05;31.09;37.17
70089;HTU21D;57460;47.134;19.888;2023-05-25T14:53:31;30.85;36.22
70089;HTU21D;57460;47.134;19.888;2023-05-25T14:55:57;31.09;37.33
70089;HTU21D;57460;47.134;19.888;2023-05-25T14:58:23;31.02;36.86
70089;HTU21D;57460;47.134;19.888;2023-05-25T15:00:49;31.13;36.65
70089;HTU21D;57460;47.134;19.888;2023-05-25T15:03:15;31.11;37.50
70089;HTU21D;57460;47.134;19.888;2023-05-25T15:05:41;31.14;35.32
70089;HTU21D;57460;47.134;19.888;2023-05-25T15:08:07;31.11;34.50
70089;HTU21D;57460;47.134;19.888;2023-05-25T15:10:33;31.14;36.83
70089;HTU21D;57460;47.134;19.888;2023-05-25T15:12:59;31.12;37.25
70089;HTU21D;57460;47.134;19.888;2023-05-25T15:15:25;30.92;34.10
70089;HTU21D;57460;47.134;19.888;2023-05-25T15:17:51;30.89;35.73
70089;HTU21D;57460;47.134;19.888;2023-05-25T15:20:17;30.94;37.42
70089;HTU21D;57460;47.134;19.888;2023-05-25T15:22:42;30.97;36.88
70089;HTU21D;57460;47.134;19.888;2023-05-25T15:25:09;30.96;36.75
70089;HTU21D;57460;47.134;19.888;2023-05-25T15:27:34;30.85;36.67
70089;HTU21D;57460;47.134;19.888;2023-05-25T15:30:00;30.82;35.78
70089;HTU21D;57460;47.134;19.888;2023-05-25T15:32:26;30.80;36.35
70089;HTU21D;57460;47.134;19.888;2023-05-25T15:34:52;30.82;36.88
70089;HTU21D;57460;47.134;19.888;2023-05-25T15:37:18;30.98;37.75
70089;HTU21D;57460;47.134;19.888;2023-05-25T15:39:44;30.86;37.22
70089;HTU21D;57460;47.134;19.888;2023-05-25T15:42:10;30.77;37.08
70089;HTU21D;57460;47.134;19.888;2023-05-25T15:44:39;30.78;36.35